Hauptseite
METAR-TAF:

METAR-TAF

Flughäfen :

Longyearbyen, Norwegen

Flughafen Longyearbyen

Breite: 78-15N, Länge: 015-28E, Höhe: 2 m

Beobachtung

Neuester Wetterbericht von vor 18 Minuten, um 21:50 UTC
Wind 7 kt aus Südost
Temperatur -5°C
Luftfeuchtigkeit 73%
Luftdruck 1044 hPa
Sichtweite 10 km oder mehr
Leicht bewölkt in der Höhe von 4000 ft

METAR: ENSB 242150Z 13007KT 9999 FEW040 M05/M09 Q1044 RMK WIND 1400FT 19013KT

Zeit: 23:08 (22:08 UTC)

Prognose

Gültige Prognose vom 24 um 18 UTC bis 25 um 18 UTC
Wind 12 kt aus Süd/Südost
Sichtweite 10 km oder mehr
Leicht bewölkt in der Höhe von 1500 ft
Aufgelockert bewölkt in der Höhe von 4000 ft
Zeitweise
vom 25 um 00 UTC bis 25 um 18 UTC
Wind 25 kt aus Süd/Südost, Böen bis zu 35 kt

TAF: ENSB 2418/2518 15012KT 9999 FEW015 SCT040 TEMPO 2500/2518 15025G35KT

Wetterbeobachtungen und Prognosen von mehr als 4000 Flughäfen (METAR und TAF Bericht).

Die verfügbaren Stationen werden durch gelbe und rote Markierungen auf der Karte dargestellt.

Führen Sie die Maus auf sie, um den Namen der Station zu sehen.

Darauf klicken, um die Beobachtung von Wetterbeobachtungen und Prognosen zu sehen.

Um die Karte zu ändern : klicken Sie auf den grünen Tasten mit einem schwarzen Kreuz Zum Vergrößern, auf den grünen Button mit einem Gedankenstrich zu verkleinern, oder auf die grünen Pfeile für benachbarte Karten.


METAR-TAF: